createdAt,value
2018-11-01T00:01:31.778Z,4.50
2018-11-01T00:04:00.349Z,4.46
2018-11-01T00:06:28.623Z,4.39
2018-11-01T00:08:56.928Z,4.37
2018-11-01T00:11:25.383Z,4.24
2018-11-01T00:13:53.656Z,4.13
2018-11-01T00:16:22.035Z,4.09
2018-11-01T00:18:50.574Z,4.10
2018-11-01T00:21:18.754Z,4.08
2018-11-01T00:23:47.008Z,4.11
2018-11-01T00:26:15.319Z,4.19
2018-11-01T00:28:43.615Z,4.33
2018-11-01T00:31:11.923Z,4.45
2018-11-01T00:33:40.173Z,4.63
2018-11-01T00:36:08.424Z,4.80
2018-11-01T00:38:37.262Z,4.95
2018-11-01T00:41:05.718Z,5.00
2018-11-01T00:43:33.947Z,4.98
2018-11-01T00:46:02.214Z,4.93
2018-11-01T00:48:30.434Z,4.83
2018-11-01T00:50:58.752Z,4.73
2018-11-01T00:53:26.959Z,4.65
2018-11-01T00:55:55.428Z,4.44
2018-11-01T00:58:23.640Z,4.47
2018-11-01T01:00:51.832Z,4.50
2018-11-01T01:03:20.078Z,4.46
2018-11-01T01:05:48.270Z,4.38
2018-11-01T01:08:16.578Z,4.45
2018-11-01T01:10:44.777Z,4.39
2018-11-01T01:13:13.127Z,4.30
2018-11-01T01:15:41.486Z,4.22
2018-11-01T01:18:09.855Z,4.20
2018-11-01T01:20:38.454Z,4.16
2018-11-01T01:23:06.695Z,4.07
2018-11-01T01:25:34.926Z,3.99
2018-11-01T01:28:03.148Z,4.03
2018-11-01T01:30:31.483Z,3.92
2018-11-01T01:32:59.702Z,3.99
2018-11-01T01:35:27.951Z,4.28
2018-11-01T01:37:56.189Z,4.30
2018-11-01T01:40:24.415Z,4.54
2018-11-01T01:42:54.212Z,4.75
2018-11-01T01:45:23.355Z,4.69
2018-11-01T01:47:51.538Z,4.67
2018-11-01T01:50:20.247Z,4.45
2018-11-01T01:52:48.834Z,4.12
2018-11-01T01:55:17.090Z,4.06
2018-11-01T01:57:45.291Z,3.89
2018-11-01T02:00:16.103Z,3.84
2018-11-01T02:02:45.666Z,3.83
2018-11-01T02:05:13.844Z,3.74
2018-11-01T02:07:42.063Z,3.87
2018-11-01T02:10:12.113Z,4.24
2018-11-01T02:12:41.043Z,4.27
2018-11-01T02:15:13.369Z,4.15
2018-11-01T02:17:42.077Z,4.23
2018-11-01T02:20:12.142Z,4.01
2018-11-01T02:22:40.896Z,3.87
2018-11-01T02:25:09.271Z,3.83
2018-11-01T02:27:42.956Z,3.76
2018-11-01T02:30:13.252Z,3.66
2018-11-01T02:32:42.438Z,3.45
2018-11-01T02:35:14.209Z,3.24
2018-11-01T02:37:42.766Z,3.24
2018-11-01T02:40:11.809Z,3.43
2018-11-01T02:42:40.729Z,3.33
2018-11-01T02:45:09.795Z,3.39
2018-11-01T02:47:38.340Z,3.21
2018-11-01T02:50:07.174Z,3.21
2018-11-01T02:52:35.471Z,2.93
2018-11-01T02:55:04.208Z,2.81
2018-11-01T02:57:32.423Z,3.09
2018-11-01T03:00:00.711Z,3.08
2018-11-01T03:02:28.993Z,3.00
2018-11-01T03:04:57.457Z,3.05
2018-11-01T03:07:25.815Z,3.08
2018-11-01T03:09:54.149Z,3.16
2018-11-01T03:12:22.395Z,3.24
2018-11-01T03:14:50.587Z,3.48
2018-11-01T03:17:18.956Z,3.85
2018-11-01T03:19:47.040Z,3.75
2018-11-01T03:22:15.526Z,3.81
2018-11-01T03:24:43.965Z,3.73
2018-11-01T03:27:12.836Z,3.48
2018-11-01T03:29:41.183Z,3.46
2018-11-01T03:32:09.411Z,3.30
2018-11-01T03:34:37.684Z,3.16
2018-11-01T03:37:05.999Z,3.08
2018-11-01T03:39:34.255Z,3.05
2018-11-01T03:42:02.505Z,2.96
2018-11-01T03:44:30.795Z,2.87
2018-11-01T03:46:59.000Z,2.87
2018-11-01T03:49:27.303Z,2.79
2018-11-01T03:51:55.590Z,2.80
2018-11-01T03:54:23.730Z,3.12
2018-11-01T03:56:52.086Z,3.49
2018-11-01T03:59:20.408Z,3.96
2018-11-01T04:01:48.735Z,3.71
2018-11-01T04:04:16.919Z,3.64
2018-11-01T04:06:45.194Z,3.54
2018-11-01T04:09:14.595Z,3.50
2018-11-01T04:11:42.822Z,3.51
2018-11-01T04:14:11.046Z,3.44
2018-11-01T04:16:39.434Z,3.47
2018-11-01T04:19:07.599Z,3.35
2018-11-01T04:21:36.116Z,3.30
2018-11-01T04:24:04.567Z,3.33
2018-11-01T04:26:32.868Z,3.21
2018-11-01T04:29:01.198Z,3.43
2018-11-01T04:31:29.352Z,3.41
2018-11-01T04:33:57.588Z,3.30
2018-11-01T04:36:26.244Z,3.60
2018-11-01T04:38:54.724Z,3.40
2018-11-01T04:41:23.112Z,3.37
2018-11-01T04:43:51.489Z,3.27
2018-11-01T04:46:19.727Z,3.31
2018-11-01T04:48:47.879Z,3.41
2018-11-01T04:51:16.098Z,3.36
2018-11-01T04:53:44.318Z,3.35
2018-11-01T04:56:12.760Z,3.46
2018-11-01T04:58:40.936Z,3.54
2018-11-01T05:01:09.412Z,3.62
2018-11-01T05:03:37.651Z,3.50
2018-11-01T05:06:06.128Z,3.48
2018-11-01T05:08:34.283Z,3.46
2018-11-01T05:11:02.508Z,3.51
2018-11-01T05:13:30.677Z,3.66
2018-11-01T05:16:05.887Z,3.56
2018-11-01T05:18:34.158Z,3.50
2018-11-01T05:21:02.672Z,3.51
2018-11-01T05:23:30.924Z,3.69
2018-11-01T05:25:59.422Z,3.81
2018-11-01T05:28:27.507Z,3.87
2018-11-01T05:30:55.697Z,3.76
2018-11-01T05:33:23.927Z,3.56
2018-11-01T05:35:52.118Z,3.57
2018-11-01T05:38:20.689Z,3.57
2018-11-01T05:40:49.096Z,3.63
2018-11-01T05:43:23.744Z,3.63
2018-11-01T05:45:52.201Z,3.63
2018-11-01T05:48:20.338Z,3.67
2018-11-01T05:50:48.745Z,3.70
2018-11-01T05:53:17.037Z,3.67
2018-11-01T05:55:45.216Z,3.75
2018-11-01T05:58:13.394Z,3.75
2018-11-01T06:00:41.556Z,3.77
2018-11-01T06:03:09.715Z,3.85
2018-11-01T06:05:38.021Z,3.87
2018-11-01T06:08:10.703Z,3.88
2018-11-01T06:10:38.886Z,3.95
2018-11-01T06:13:07.028Z,4.05
2018-11-01T06:15:35.232Z,4.14
2018-11-01T06:18:03.414Z,4.18
2018-11-01T06:20:31.720Z,4.23
2018-11-01T06:22:59.793Z,4.16
2018-11-01T06:25:27.938Z,4.05
2018-11-01T06:27:56.143Z,3.93
2018-11-01T06:30:24.366Z,3.73
2018-11-01T06:32:52.538Z,3.60
2018-11-01T06:35:23.612Z,3.64
2018-11-01T06:37:51.755Z,3.62
2018-11-01T06:40:20.820Z,3.77
2018-11-01T06:42:49.089Z,3.83
2018-11-01T06:45:17.797Z,3.74
2018-11-01T06:47:45.919Z,3.77
2018-11-01T06:50:14.088Z,3.92
2018-11-01T06:52:42.356Z,3.97
2018-11-01T06:55:11.359Z,4.06
2018-11-01T06:57:39.819Z,4.41
2018-11-01T07:00:10.199Z,4.30
2018-11-01T07:02:38.582Z,4.36
2018-11-01T07:05:06.911Z,4.85
2018-11-01T07:07:35.359Z,4.60
2018-11-01T07:10:03.998Z,4.62
2018-11-01T07:12:32.116Z,4.34
2018-11-01T07:15:00.461Z,4.35
2018-11-01T07:17:28.972Z,4.34
2018-11-01T07:19:56.957Z,4.34
2018-11-01T07:22:25.101Z,4.44
2018-11-01T07:24:53.736Z,4.48
2018-11-01T07:27:21.982Z,4.70
2018-11-01T07:29:50.138Z,4.95
2018-11-01T07:32:18.404Z,4.86
2018-11-01T07:34:46.564Z,5.02
2018-11-01T07:37:14.847Z,5.29
2018-11-01T07:39:43.071Z,5.01
2018-11-01T07:42:11.216Z,4.91
2018-11-01T07:44:39.440Z,5.06
2018-11-01T07:47:07.616Z,5.17
2018-11-01T07:49:35.959Z,5.17
2018-11-01T07:52:04.239Z,5.21
2018-11-01T07:54:32.386Z,5.30
2018-11-01T07:57:00.561Z,5.28
2018-11-01T07:59:29.136Z,5.40
2018-11-01T08:01:57.350Z,5.34
2018-11-01T08:04:25.824Z,5.37
2018-11-01T08:06:55.027Z,5.41
2018-11-01T08:09:23.236Z,5.46
2018-11-01T08:11:51.508Z,5.16
2018-11-01T08:14:19.578Z,5.36
2018-11-01T08:16:48.002Z,5.51
2018-11-01T08:19:16.422Z,5.59
2018-11-01T08:21:44.658Z,5.61
2018-11-01T08:24:12.799Z,5.92
2018-11-01T08:26:41.084Z,5.92
2018-11-01T08:29:09.352Z,6.23
2018-11-01T08:31:37.517Z,6.45
2018-11-01T08:34:05.706Z,6.52
2018-11-01T08:36:33.855Z,6.37
2018-11-01T08:39:02.061Z,6.48
2018-11-01T08:41:30.231Z,6.65
2018-11-01T08:43:58.540Z,6.52
2018-11-01T08:46:26.724Z,6.46
2018-11-01T08:48:54.889Z,6.45
2018-11-01T08:51:23.234Z,6.44
2018-11-01T08:53:51.440Z,6.66
2018-11-01T08:56:19.749Z,6.42
2018-11-01T08:58:47.923Z,6.53
2018-11-01T09:01:16.199Z,6.45
2018-11-01T09:03:44.391Z,6.36
2018-11-01T09:06:12.519Z,6.50
2018-11-01T09:08:40.835Z,6.61
2018-11-01T09:11:09.120Z,6.72
2018-11-01T09:13:37.412Z,6.83
2018-11-01T09:16:05.586Z,6.77
2018-11-01T09:18:33.735Z,6.87
2018-11-01T09:21:01.871Z,6.87
2018-11-01T09:23:30.150Z,6.92
2018-11-01T09:25:58.567Z,6.83
2018-11-01T09:28:28.134Z,6.85
2018-11-01T09:30:59.432Z,6.96
2018-11-01T09:33:27.900Z,6.94
2018-11-01T09:35:56.135Z,7.14
2018-11-01T09:38:24.319Z,7.19
2018-11-01T09:40:52.496Z,7.28
2018-11-01T09:43:20.963Z,7.34
2018-11-01T09:45:49.143Z,7.38
2018-11-01T09:48:17.284Z,7.51
2018-11-01T09:50:45.548Z,7.74
2018-11-01T09:53:13.840Z,8.13
2018-11-01T09:55:42.176Z,8.35
2018-11-01T09:58:10.528Z,8.35
2018-11-01T10:00:38.678Z,8.06
2018-11-01T10:03:06.846Z,8.31
2018-11-01T10:05:35.016Z,8.36
2018-11-01T10:08:03.194Z,8.27
2018-11-01T10:10:31.647Z,8.53
2018-11-01T10:12:59.891Z,8.48
2018-11-01T10:15:28.892Z,8.46
2018-11-01T10:17:57.308Z,8.57
2018-11-01T10:20:25.177Z,8.62
2018-11-01T10:22:53.403Z,8.60
2018-11-01T10:25:21.878Z,8.53
2018-11-01T10:27:50.101Z,8.58
2018-11-01T10:30:20.523Z,8.83
2018-11-01T10:32:48.765Z,9.30
2018-11-01T10:35:17.941Z,9.70
2018-11-01T10:37:46.268Z,10.08
2018-11-01T10:40:16.711Z,10.30
2018-11-01T10:42:44.910Z,10.33
2018-11-01T10:45:13.124Z,10.29
2018-11-01T10:47:41.352Z,9.93
2018-11-01T10:50:11.950Z,9.87
2018-11-01T10:52:40.609Z,10.13
2018-11-01T10:55:09.655Z,10.30
2018-11-01T10:57:37.873Z,10.30
2018-11-01T11:00:07.047Z,10.34
2018-11-01T11:02:35.143Z,10.32
2018-11-01T11:05:03.603Z,10.27
2018-11-01T11:07:31.901Z,10.25
2018-11-01T11:10:00.169Z,10.11
2018-11-01T11:12:28.384Z,10.28
2018-11-01T11:14:56.587Z,10.55
2018-11-01T11:17:24.752Z,10.87
2018-11-01T11:19:53.456Z,11.03
2018-11-01T11:22:21.722Z,11.03
2018-11-01T11:24:49.922Z,11.34
2018-11-01T11:27:18.357Z,11.71
2018-11-01T11:29:46.680Z,11.90
2018-11-01T11:32:15.054Z,12.17
2018-11-01T11:34:43.516Z,12.41
2018-11-01T11:37:11.826Z,12.70
2018-11-01T11:39:40.099Z,12.89
2018-11-01T11:42:08.193Z,12.81
2018-11-01T11:44:36.467Z,12.89
2018-11-01T11:47:04.959Z,12.80
2018-11-01T11:49:33.426Z,12.77
2018-11-01T11:52:01.868Z,12.76
2018-11-01T11:54:31.059Z,12.60
2018-11-01T11:56:59.292Z,12.60
2018-11-01T11:59:27.407Z,12.52
2018-11-01T12:01:55.563Z,12.31
2018-11-01T12:04:23.899Z,12.35
2018-11-01T12:06:52.228Z,12.26
2018-11-01T12:09:20.442Z,12.36
2018-11-01T12:11:48.628Z,12.49
2018-11-01T12:14:17.073Z,12.45
2018-11-01T12:16:45.259Z,12.50
2018-11-01T12:19:13.643Z,12.34
2018-11-01T12:21:42.095Z,12.25
2018-11-01T12:24:10.513Z,12.27
2018-11-01T12:26:38.692Z,12.27
2018-11-01T12:29:07.145Z,12.33
2018-11-01T12:31:35.249Z,12.48
2018-11-01T12:34:03.399Z,12.41
2018-11-01T12:36:32.021Z,12.48
2018-11-01T12:39:00.424Z,12.38
2018-11-01T12:41:28.915Z,12.15
2018-11-01T12:43:56.995Z,12.01
2018-11-01T12:46:25.147Z,12.03
2018-11-01T12:48:53.432Z,11.95
2018-11-01T12:51:21.751Z,12.05
2018-11-01T12:53:49.919Z,12.24
2018-11-01T12:56:18.367Z,12.23
2018-11-01T12:58:46.835Z,12.24
2018-11-01T13:01:15.060Z,12.38
2018-11-01T13:03:43.320Z,12.52
2018-11-01T13:06:11.780Z,12.55
2018-11-01T13:08:40.206Z,12.63
2018-11-01T13:11:08.631Z,12.55
2018-11-01T13:13:36.948Z,12.42
2018-11-01T13:16:05.350Z,12.44
2018-11-01T13:18:33.753Z,12.49
2018-11-01T13:21:03.186Z,12.48
2018-11-01T13:23:31.324Z,12.52
2018-11-01T13:25:59.501Z,12.47
2018-11-01T13:28:27.741Z,12.49
2018-11-01T13:30:56.011Z,12.54
2018-11-01T13:33:24.232Z,12.29
2018-11-01T13:35:52.426Z,12.48
2018-11-01T13:38:20.816Z,12.44
2018-11-01T13:40:49.541Z,12.31
2018-11-01T13:43:17.439Z,12.09
2018-11-01T13:45:45.571Z,12.33
2018-11-01T13:48:13.893Z,12.30
2018-11-01T13:50:42.091Z,12.37
2018-11-01T13:53:10.519Z,12.52
2018-11-01T13:55:38.648Z,12.64
2018-11-01T13:58:06.868Z,12.53
2018-11-01T14:00:35.048Z,12.65
2018-11-01T14:03:04.346Z,12.53
2018-11-01T14:05:32.670Z,12.29
2018-11-01T14:08:00.775Z,12.43
2018-11-01T14:10:29.100Z,12.49
2018-11-01T14:12:57.457Z,12.62
2018-11-01T14:15:26.094Z,12.57
2018-11-01T14:17:53.939Z,12.56
2018-11-01T14:20:23.225Z,12.75
2018-11-01T14:22:51.423Z,12.48
2018-11-01T14:25:19.646Z,12.61
2018-11-01T14:27:47.765Z,12.60
2018-11-01T14:30:16.819Z,12.45
2018-11-01T14:32:45.096Z,12.58
2018-11-01T14:35:14.691Z,12.44
2018-11-01T14:37:43.094Z,12.30
2018-11-01T14:40:12.743Z,12.43
2018-11-01T14:42:41.155Z,12.37
2018-11-01T14:45:09.864Z,12.53
2018-11-01T14:47:38.447Z,12.53
2018-11-01T14:50:07.530Z,12.29
2018-11-01T14:52:36.150Z,12.25
2018-11-01T14:55:05.446Z,12.17
2018-11-01T14:57:33.883Z,12.28
2018-11-01T15:00:00.802Z,12.01
2018-11-01T15:02:29.011Z,11.94
2018-11-01T15:04:57.284Z,12.08
2018-11-01T15:07:25.647Z,12.10
2018-11-01T15:09:53.959Z,12.10
2018-11-01T15:12:22.267Z,11.89
2018-11-01T15:14:50.452Z,11.84
2018-11-01T15:17:18.628Z,11.81
2018-11-01T15:19:46.847Z,11.80
2018-11-01T15:22:15.241Z,11.67
2018-11-01T15:24:43.420Z,11.67
2018-11-01T15:27:11.768Z,11.59
2018-11-01T15:29:40.072Z,11.59
2018-11-01T15:32:08.248Z,11.50
2018-11-01T15:34:37.071Z,11.32
2018-11-01T15:37:05.207Z,11.24
2018-11-01T15:39:33.349Z,11.22
2018-11-01T15:42:01.820Z,11.16
2018-11-01T15:44:30.120Z,11.08
2018-11-01T15:46:58.374Z,10.89
2018-11-01T15:49:26.635Z,10.83
2018-11-01T15:51:55.104Z,10.82
2018-11-01T15:54:23.568Z,10.79
2018-11-01T15:56:51.971Z,10.68
2018-11-01T15:59:20.519Z,10.45
2018-11-01T16:01:48.891Z,10.25
2018-11-01T16:04:17.384Z,10.21
2018-11-01T16:06:45.644Z,10.31
2018-11-01T16:09:14.408Z,10.24
2018-11-01T16:11:42.981Z,10.16
2018-11-01T16:14:11.582Z,9.95
2018-11-01T16:16:40.368Z,9.92
2018-11-01T16:19:09.283Z,9.98
2018-11-01T16:21:38.674Z,10.02
2018-11-01T16:24:06.983Z,9.83
2018-11-01T16:26:35.224Z,9.69
2018-11-01T16:29:03.671Z,9.50
2018-11-01T16:31:32.327Z,9.18
2018-11-01T16:34:00.452Z,9.11
2018-11-01T16:36:28.807Z,9.12
2018-11-01T16:38:56.981Z,9.10
2018-11-01T16:41:25.166Z,9.14
2018-11-01T16:43:53.313Z,9.14
2018-11-01T16:46:21.530Z,9.09
2018-11-01T16:48:49.857Z,9.06
2018-11-01T16:51:18.072Z,8.92
2018-11-01T16:53:52.900Z,8.80
2018-11-01T16:56:21.193Z,8.70
2018-11-01T16:58:55.971Z,8.76
2018-11-01T17:01:24.191Z,8.70
2018-11-01T17:03:52.554Z,8.63
2018-11-01T17:06:20.840Z,8.67
2018-11-01T17:08:49.109Z,8.67
2018-11-01T17:11:17.414Z,8.65
2018-11-01T17:13:45.691Z,8.68
2018-11-01T17:16:14.045Z,8.75
2018-11-01T17:18:42.402Z,8.78
2018-11-01T17:21:10.713Z,8.70
2018-11-01T17:23:38.868Z,8.69
2018-11-01T17:26:07.364Z,8.76
2018-11-01T17:28:35.786Z,8.73
2018-11-01T17:31:04.027Z,8.72
2018-11-01T17:33:32.196Z,8.78
2018-11-01T17:36:00.536Z,8.81
2018-11-01T17:38:28.678Z,8.88
2018-11-01T17:40:57.232Z,8.84
2018-11-01T17:43:25.499Z,8.57
2018-11-01T17:45:53.844Z,8.42
2018-11-01T17:48:22.192Z,8.39
2018-11-01T17:50:50.461Z,8.15
2018-11-01T17:53:18.938Z,8.00
2018-11-01T17:55:47.199Z,7.91
2018-11-01T17:58:15.449Z,7.91
2018-11-01T18:00:43.686Z,7.79
2018-11-01T18:03:11.857Z,7.74
2018-11-01T18:05:40.104Z,7.63
2018-11-01T18:08:08.387Z,7.58
2018-11-01T18:10:36.649Z,7.63
2018-11-01T18:13:04.865Z,7.66
2018-11-01T18:15:33.089Z,7.72
2018-11-01T18:18:01.305Z,7.88
2018-11-01T18:20:29.473Z,8.08
2018-11-01T18:22:57.627Z,8.18
2018-11-01T18:25:25.935Z,8.24
2018-11-01T18:27:54.091Z,8.22
2018-11-01T18:30:22.261Z,8.14
2018-11-01T18:32:50.657Z,8.06
2018-11-01T18:35:18.800Z,8.00
2018-11-01T18:37:46.986Z,7.94
2018-11-01T18:40:16.669Z,7.93
2018-11-01T18:42:44.899Z,8.02
2018-11-01T18:45:14.294Z,8.05
2018-11-01T18:47:43.058Z,8.05
2018-11-01T18:50:12.500Z,8.08
2018-11-01T18:52:40.981Z,8.05
2018-11-01T18:55:10.388Z,8.09
2018-11-01T18:57:38.536Z,8.12
2018-11-01T19:00:09.155Z,8.11
2018-11-01T19:02:37.268Z,8.07
2018-11-01T19:05:05.724Z,8.13
2018-11-01T19:07:33.980Z,8.13
2018-11-01T19:10:02.336Z,8.12
2018-11-01T19:12:30.527Z,8.16
2018-11-01T19:14:58.723Z,8.27
2018-11-01T19:17:26.944Z,8.35
2018-11-01T19:19:55.143Z,8.35
2018-11-01T19:22:23.368Z,8.35
2018-11-01T19:24:51.632Z,8.38
2018-11-01T19:27:20.149Z,8.40
2018-11-01T19:29:48.233Z,8.54
2018-11-01T19:32:16.981Z,8.78
2018-11-01T19:34:45.223Z,8.97
2018-11-01T19:37:13.528Z,9.10
2018-11-01T19:39:41.673Z,9.10
2018-11-01T19:42:09.858Z,9.21
2018-11-01T19:44:38.112Z,9.36
2018-11-01T19:47:06.332Z,9.44
2018-11-01T19:49:34.624Z,9.42
2018-11-01T19:52:02.716Z,9.47
2018-11-01T19:54:31.107Z,9.48
2018-11-01T19:56:59.234Z,9.47
2018-11-01T19:59:27.359Z,9.51
2018-11-01T20:01:55.888Z,9.49
2018-11-01T20:04:24.185Z,9.54
2018-11-01T20:06:52.339Z,9.41
2018-11-01T20:09:20.575Z,9.46
2018-11-01T20:11:48.730Z,9.42
2018-11-01T20:14:16.984Z,9.39
2018-11-01T20:16:45.124Z,9.35
2018-11-01T20:19:14.076Z,9.44
2018-11-01T20:21:42.089Z,9.36
2018-11-01T20:24:10.369Z,9.41
2018-11-01T20:26:38.721Z,9.41
2018-11-01T20:29:07.307Z,9.46
2018-11-01T20:31:35.624Z,9.43
2018-11-01T20:34:03.796Z,9.50
2018-11-01T20:36:32.027Z,9.50
2018-11-01T20:39:00.292Z,9.45
2018-11-01T20:41:28.439Z,9.38
2018-11-01T20:43:56.620Z,9.34
2018-11-01T20:46:25.103Z,9.32
2018-11-01T20:48:53.316Z,9.39
2018-11-01T20:51:21.504Z,9.39
2018-11-01T20:53:50.346Z,9.46
2018-11-01T20:56:18.525Z,9.41
2018-11-01T20:58:46.698Z,9.36
2018-11-01T21:01:15.015Z,9.37
2018-11-01T21:03:43.216Z,9.24
2018-11-01T21:06:11.460Z,9.23
2018-11-01T21:08:39.640Z,9.26
2018-11-01T21:11:07.953Z,9.22
2018-11-01T21:13:36.217Z,9.17
2018-11-01T21:16:04.507Z,9.17
2018-11-01T21:18:32.665Z,9.12
2018-11-01T21:21:00.986Z,9.06
2018-11-01T21:23:29.585Z,9.10
2018-11-01T21:25:58.276Z,9.13
2018-11-01T21:28:26.599Z,9.12
2018-11-01T21:30:54.847Z,9.13
2018-11-01T21:33:23.207Z,9.16
2018-11-01T21:35:52.476Z,9.15
2018-11-01T21:38:20.676Z,9.10
2018-11-01T21:40:48.913Z,9.06
2018-11-01T21:43:17.184Z,9.03
2018-11-01T21:45:45.556Z,9.12
2018-11-01T21:48:13.818Z,9.07
2018-11-01T21:50:42.096Z,9.00
2018-11-01T21:53:10.447Z,8.91
2018-11-01T21:55:38.595Z,8.79
2018-11-01T21:58:07.092Z,8.56
2018-11-01T22:02:37.984Z,8.44
2018-11-01T22:05:06.568Z,8.19
2018-11-01T22:07:34.789Z,8.09
2018-11-01T22:10:03.156Z,8.04
2018-11-01T22:12:31.427Z,8.05
2018-11-01T22:14:59.571Z,8.02
2018-11-01T22:17:27.878Z,7.99
2018-11-01T22:19:56.178Z,8.01
2018-11-01T22:22:24.499Z,7.92
2018-11-01T22:24:52.632Z,8.04
2018-11-01T22:27:20.739Z,7.99
2018-11-01T22:29:48.899Z,8.02
2018-11-01T22:32:17.088Z,7.93
2018-11-01T22:34:45.239Z,7.88
2018-11-01T22:37:13.383Z,7.75
2018-11-01T22:39:41.622Z,7.74
2018-11-01T22:42:10.042Z,7.79
2018-11-01T22:44:38.555Z,7.78
2018-11-01T22:47:06.950Z,7.73
2018-11-01T22:49:35.098Z,7.84
2018-11-01T22:52:03.508Z,7.78
2018-11-01T22:54:31.808Z,7.87
2018-11-01T22:56:59.952Z,7.93
2018-11-01T22:59:28.093Z,7.91
2018-11-01T23:01:56.340Z,7.96
2018-11-01T23:04:24.636Z,7.93
2018-11-01T23:06:52.776Z,7.96
2018-11-01T23:09:20.913Z,8.00
2018-11-01T23:11:49.345Z,7.94
2018-11-01T23:14:17.571Z,7.90
2018-11-01T23:16:45.759Z,7.86
2018-11-01T23:19:14.303Z,7.82
2018-11-01T23:21:42.651Z,8.02
2018-11-01T23:24:10.772Z,8.02
2018-11-01T23:26:38.995Z,8.06
2018-11-01T23:29:07.190Z,7.99
2018-11-01T23:31:35.572Z,7.97
2018-11-01T23:34:03.920Z,8.00
2018-11-01T23:36:37.595Z,8.12
2018-11-01T23:39:13.591Z,8.16
2018-11-01T23:41:47.810Z,8.18
2018-11-01T23:44:21.675Z,8.04
2018-11-01T23:46:55.719Z,7.96
2018-11-01T23:49:28.876Z,7.98
2018-11-01T23:52:00.855Z,8.08
2018-11-01T23:54:29.095Z,7.87
2018-11-01T23:56:58.157Z,7.70
2018-11-01T23:59:26.345Z,7.52
